< < Back
Terminal Aerodrome Forecast


Current Version              Previous Versions:   1  2  3  4  5  6  7  8  9  

Terminal Aerodrome Forecast

370
FTUS42 KCAE 251200 AAA
TAFCAE
TAF AMD
KCAE 251243Z 2513/2612 05005KT P6SM BKN009
     FM251500 VRB05KT P6SM SCT030
     FM252300 VRB03KT P6SM SCT250=

Latest METAR

427
SAUS80 KWBC 251300 RRA
MTRCAE
METAR KCAE 251256Z 05004KT 10SM OVC013 27/21 A3002 RMK AO2 SLP162
T02670211


USA.gov is the U.S. government's official web portal to all federal, state and local government web resources and services.